sensor_id;sensor_type;location;lat;lon;timestamp;pressure;altitude;pressure_sealevel;temperature;humidity
69402;BME280;56589;51.992;5.924;2023-04-15T00:00:53;100319.13;;;8.50;52.64
69402;BME280;56589;51.992;5.924;2023-04-15T00:03:19;100314.09;;;8.47;53.28
69402;BME280;56589;51.992;5.924;2023-04-15T00:05:45;100313.44;;;8.43;52.86
69402;BME280;56589;51.992;5.924;2023-04-15T00:08:11;100315.22;;;8.43;53.01
69402;BME280;56589;51.992;5.924;2023-04-15T00:10:39;100311.97;;;8.39;53.35
69402;BME280;56589;51.992;5.924;2023-04-15T00:13:05;100317.28;;;8.38;53.24
69402;BME280;56589;51.992;5.924;2023-04-15T00:15:30;100311.44;;;8.34;53.59
69402;BME280;56589;51.992;5.924;2023-04-15T00:17:56;100314.22;;;8.31;53.38
69402;BME280;56589;51.992;5.924;2023-04-15T00:20:22;100312.63;;;8.29;54.08
69402;BME280;56589;51.992;5.924;2023-04-15T00:22:48;100319.94;;;8.24;54.16
69402;BME280;56589;51.992;5.924;2023-04-15T00:25:14;100314.88;;;8.21;54.50
69402;BME280;56589;51.992;5.924;2023-04-15T00:27:42;100316.84;;;8.17;54.22
69402;BME280;56589;51.992;5.924;2023-04-15T00:30:08;100318.72;;;8.15;54.32
69402;BME280;56589;51.992;5.924;2023-04-15T00:32:34;100311.16;;;8.10;54.54
69402;BME280;56589;51.992;5.924;2023-04-15T00:35:00;100316.50;;;8.09;54.83
69402;BME280;56589;51.992;5.924;2023-04-15T00:37:26;100322.72;;;8.06;55.05
69402;BME280;56589;51.992;5.924;2023-04-15T00:39:52;100314.16;;;8.04;55.19
69402;BME280;56589;51.992;5.924;2023-04-15T00:42:18;100315.16;;;8.02;55.22
69402;BME280;56589;51.992;5.924;2023-04-15T00:44:47;100312.66;;;8.00;55.66
69402;BME280;56589;51.992;5.924;2023-04-15T00:47:13;100315.47;;;7.97;55.51
69402;BME280;56589;51.992;5.924;2023-04-15T00:49:40;100313.84;;;7.95;56.02
69402;BME280;56589;51.992;5.924;2023-04-15T00:52:06;100310.59;;;7.91;56.20
69402;BME280;56589;51.992;5.924;2023-04-15T00:54:32;100315.06;;;7.89;56.15
69402;BME280;56589;51.992;5.924;2023-04-15T00:56:58;100313.50;;;7.86;56.17
69402;BME280;56589;51.992;5.924;2023-04-15T00:59:24;100312.75;;;7.84;56.53
69402;BME280;56589;51.992;5.924;2023-04-15T01:01:52;100310.22;;;7.83;56.41
69402;BME280;56589;51.992;5.924;2023-04-15T01:04:18;100308.72;;;7.79;57.00
69402;BME280;56589;51.992;5.924;2023-04-15T01:06:44;100310.69;;;7.75;57.35
69402;BME280;56589;51.992;5.924;2023-04-15T01:09:10;100316.84;;;7.74;57.41
69402;BME280;56589;51.992;5.924;2023-04-15T01:11:36;100317.78;;;7.73;57.76
69402;BME280;56589;51.992;5.924;2023-04-15T01:14:03;100312.56;;;7.73;57.61
69402;BME280;56589;51.992;5.924;2023-04-15T01:16:29;100316.75;;;7.76;57.78
69402;BME280;56589;51.992;5.924;2023-04-15T01:18:58;100318.63;;;7.74;57.84
69402;BME280;56589;51.992;5.924;2023-04-15T01:21:24;100324.78;;;7.73;58.07
69402;BME280;56589;51.992;5.924;2023-04-15T01:23:52;100329.91;;;7.74;58.00
69402;BME280;56589;51.992;5.924;2023-04-15T01:26:22;100323.09;;;7.72;58.40
69402;BME280;56589;51.992;5.924;2023-04-15T01:28:48;100327.41;;;7.73;58.04
69402;BME280;56589;51.992;5.924;2023-04-15T01:31:14;100317.78;;;7.73;58.66
69402;BME280;56589;51.992;5.924;2023-04-15T01:33:41;100315.06;;;7.75;58.65
69402;BME280;56589;51.992;5.924;2023-04-15T01:36:08;100321.97;;;7.76;58.68
69402;BME280;56589;51.992;5.924;2023-04-15T01:38:35;100315.81;;;7.77;58.55
69402;BME280;56589;51.992;5.924;2023-04-15T01:41:02;100305.44;;;7.75;58.84
69402;BME280;56589;51.992;5.924;2023-04-15T01:43:30;100321.97;;;7.76;58.98
69402;BME280;56589;51.992;5.924;2023-04-15T01:45:56;100318.50;;;7.75;58.80
69402;BME280;56589;51.992;5.924;2023-04-15T01:48:22;100319.44;;;7.74;58.94
69402;BME280;56589;51.992;5.924;2023-04-15T01:50:48;100317.69;;;7.75;58.79
69402;BME280;56589;51.992;5.924;2023-04-15T01:53:13;100322.81;;;7.76;59.33
69402;BME280;56589;51.992;5.924;2023-04-15T01:55:39;100322.75;;;7.78;59.40
69402;BME280;56589;51.992;5.924;2023-04-15T01:58:05;100324.47;;;7.77;59.66
69402;BME280;56589;51.992;5.924;2023-04-15T02:00:33;100323.66;;;7.77;59.55
69402;BME280;56589;51.992;5.924;2023-04-15T02:02:59;100316.00;;;7.74;59.44
69402;BME280;56589;51.992;5.924;2023-04-15T02:05:25;100314.22;;;7.74;59.22
69402;BME280;56589;51.992;5.924;2023-04-15T02:07:51;100321.97;;;7.76;59.14
69402;BME280;56589;51.992;5.924;2023-04-15T02:10:17;100323.75;;;7.75;59.73
69402;BME280;56589;51.992;5.924;2023-04-15T02:12:42;100326.56;;;7.72;60.01
69402;BME280;56589;51.992;5.924;2023-04-15T02:15:09;100322.16;;;7.73;59.58
69402;BME280;56589;51.992;5.924;2023-04-15T02:17:38;100328.41;;;7.70;59.49
69402;BME280;56589;51.992;5.924;2023-04-15T02:20:05;100326.06;;;7.66;59.67
69402;BME280;56589;51.992;5.924;2023-04-15T02:22:31;100338.38;;;7.64;59.76
69402;BME280;56589;51.992;5.924;2023-04-15T02:24:57;100342.84;;;7.61;59.95
69402;BME280;56589;51.992;5.924;2023-04-15T02:27:23;100339.56;;;7.58;60.14
69402;BME280;56589;51.992;5.924;2023-04-15T02:29:49;100336.31;;;7.54;59.78
69402;BME280;56589;51.992;5.924;2023-04-15T02:32:15;100339.09;;;7.51;60.26
69402;BME280;56589;51.992;5.924;2023-04-15T02:34:43;100346.09;;;7.51;60.70
69402;BME280;56589;51.992;5.924;2023-04-15T02:37:11;100342.84;;;7.47;60.33
69402;BME280;56589;51.992;5.924;2023-04-15T02:39:38;100344.66;;;7.45;60.77
69402;BME280;56589;51.992;5.924;2023-04-15T02:42:04;100353.63;;;7.41;60.55
69402;BME280;56589;51.992;5.924;2023-04-15T02:44:29;100354.53;;;7.40;60.74
69402;BME280;56589;51.992;5.924;2023-04-15T02:46:55;100353.97;;;7.35;60.86
69402;BME280;56589;51.992;5.924;2023-04-15T02:49:21;100360.19;;;7.32;60.90
69402;BME280;56589;51.992;5.924;2023-04-15T02:51:50;100360.44;;;7.28;60.72
69402;BME280;56589;51.992;5.924;2023-04-15T02:54:15;100367.72;;;7.23;61.28
69402;BME280;56589;51.992;5.924;2023-04-15T02:56:41;100361.91;;;7.18;61.06
69402;BME280;56589;51.992;5.924;2023-04-15T02:59:07;100367.28;;;7.15;61.24
69402;BME280;56589;51.992;5.924;2023-04-15T03:01:33;100365.72;;;7.12;61.64
69402;BME280;56589;51.992;5.924;2023-04-15T03:03:59;100366.78;;;7.08;61.44
69402;BME280;56589;51.992;5.924;2023-04-15T03:06:24;100367.03;;;7.03;61.86
69402;BME280;56589;51.992;5.924;2023-04-15T03:08:53;100363.69;;;7.01;62.14
69402;BME280;56589;51.992;5.924;2023-04-15T03:11:19;100367.38;;;6.97;62.24
69402;BME280;56589;51.992;5.924;2023-04-15T03:13:44;100370.19;;;6.94;62.66
69402;BME280;56589;51.992;5.924;2023-04-15T03:16:10;100365.22;;;6.90;62.14
69402;BME280;56589;51.992;5.924;2023-04-15T03:18:36;100365.41;;;6.87;62.46
69402;BME280;56589;51.992;5.924;2023-04-15T03:21:02;100369.94;;;6.83;62.52
69402;BME280;56589;51.992;5.924;2023-04-15T03:23:30;100364.91;;;6.80;62.70
69402;BME280;56589;51.992;5.924;2023-04-15T03:26:00;100370.19;;;6.78;63.17
69402;BME280;56589;51.992;5.924;2023-04-15T03:28:26;100371.19;;;6.76;63.21
69402;BME280;56589;51.992;5.924;2023-04-15T03:30:52;100367.06;;;6.72;63.08
69402;BME280;56589;51.992;5.924;2023-04-15T03:33:18;100371.53;;;6.70;63.32
69402;BME280;56589;51.992;5.924;2023-04-15T03:35:44;100381.13;;;6.69;63.17
69402;BME280;56589;51.992;5.924;2023-04-15T03:38:09;100375.31;;;6.64;63.94
69402;BME280;56589;51.992;5.924;2023-04-15T03:40:35;100385.00;;;6.62;63.65
69402;BME280;56589;51.992;5.924;2023-04-15T03:43:03;100380.78;;;6.60;63.70
69402;BME280;56589;51.992;5.924;2023-04-15T03:45:29;100383.72;;;6.53;63.85
69402;BME280;56589;51.992;5.924;2023-04-15T03:47:55;100389.19;;;6.49;64.05
69402;BME280;56589;51.992;5.924;2023-04-15T03:50:21;100385.16;;;6.43;63.93
69402;BME280;56589;51.992;5.924;2023-04-15T03:52:47;100387.16;;;6.38;64.23
69402;BME280;56589;51.992;5.924;2023-04-15T03:55:12;100386.38;;;6.36;64.72
69402;BME280;56589;51.992;5.924;2023-04-15T03:57:38;100388.31;;;6.33;64.42
69402;BME280;56589;51.992;5.924;2023-04-15T04:00:08;100393.69;;;6.30;64.99
69402;BME280;56589;51.992;5.924;2023-04-15T04:02:34;100387.78;;;6.26;64.56
69402;BME280;56589;51.992;5.924;2023-04-15T04:05:00;100386.25;;;6.22;65.23
69402;BME280;56589;51.992;5.924;2023-04-15T04:07:26;100393.34;;;6.20;64.89
69402;BME280;56589;51.992;5.924;2023-04-15T04:09:52;100396.09;;;6.17;65.48
69402;BME280;56589;51.992;5.924;2023-04-15T04:12:17;100409.22;;;6.15;65.38
69402;BME280;56589;51.992;5.924;2023-04-15T04:14:43;100400.63;;;6.13;65.45
69402;BME280;56589;51.992;5.924;2023-04-15T04:17:12;100408.44;;;6.13;65.47
69402;BME280;56589;51.992;5.924;2023-04-15T04:19:38;100410.13;;;6.14;65.56
69402;BME280;56589;51.992;5.924;2023-04-15T04:22:03;100418.88;;;6.13;65.69
69402;BME280;56589;51.992;5.924;2023-04-15T04:24:30;100419.03;;;6.10;65.50
69402;BME280;56589;51.992;5.924;2023-04-15T04:26:55;100423.47;;;6.08;65.49
69402;BME280;56589;51.992;5.924;2023-04-15T04:29:21;100429.66;;;6.06;66.19
69402;BME280;56589;51.992;5.924;2023-04-15T04:31:47;100426.22;;;6.05;65.96
69402;BME280;56589;51.992;5.924;2023-04-15T04:34:16;100432.44;;;6.03;65.90
69402;BME280;56589;51.992;5.924;2023-04-15T04:36:42;100434.31;;;6.00;66.36
69402;BME280;56589;51.992;5.924;2023-04-15T04:39:07;100431.75;;;5.99;66.10
69402;BME280;56589;51.992;5.924;2023-04-15T04:41:33;100437.97;;;5.96;66.41
69402;BME280;56589;51.992;5.924;2023-04-15T04:43:59;100441.50;;;5.95;66.60
69402;BME280;56589;51.992;5.924;2023-04-15T04:46:24;100439.03;;;5.92;66.27
69402;BME280;56589;51.992;5.924;2023-04-15T04:48:50;100445.34;;;5.88;66.85
69402;BME280;56589;51.992;5.924;2023-04-15T04:51:19;100457.66;;;5.85;67.05
69402;BME280;56589;51.992;5.924;2023-04-15T04:53:45;100460.44;;;5.82;67.11
69402;BME280;56589;51.992;5.924;2023-04-15T04:56:10;100457.88;;;5.80;67.13
69402;BME280;56589;51.992;5.924;2023-04-15T04:58:36;100459.72;;;5.78;67.16
69402;BME280;56589;51.992;5.924;2023-04-15T05:01:02;100470.22;;;5.77;67.38
69402;BME280;56589;51.992;5.924;2023-04-15T05:03:28;100472.88;;;5.75;67.51
69402;BME280;56589;51.992;5.924;2023-04-15T05:05:54;100479.03;;;5.74;67.99
69402;BME280;56589;51.992;5.924;2023-04-15T05:08:22;100474.75;;;5.73;68.30
69402;BME280;56589;51.992;5.924;2023-04-15T05:10:48;100472.97;;;5.73;68.37
69402;BME280;56589;51.992;5.924;2023-04-15T05:13:14;100479.81;;;5.76;68.40
69402;BME280;56589;51.992;5.924;2023-04-15T05:15:40;100488.31;;;5.80;67.85
69402;BME280;56589;51.992;5.924;2023-04-15T05:18:05;100496.91;;;5.82;68.08
69402;BME280;56589;51.992;5.924;2023-04-15T05:20:31;100501.03;;;5.86;68.19
69402;BME280;56589;51.992;5.924;2023-04-15T05:22:57;100504.34;;;5.89;68.13
69402;BME280;56589;51.992;5.924;2023-04-15T05:25:26;100501.25;;;5.98;68.37
69402;BME280;56589;51.992;5.924;2023-04-15T05:27:51;100515.53;;;6.09;68.41
69402;BME280;56589;51.992;5.924;2023-04-15T05:30:17;100510.63;;;6.20;68.25
69402;BME280;56589;51.992;5.924;2023-04-15T05:32:43;100516.81;;;6.35;68.40
69402;BME280;56589;51.992;5.924;2023-04-15T05:35:09;100512.94;;;6.43;68.11
69402;BME280;56589;51.992;5.924;2023-04-15T05:37:34;100524.50;;;6.55;68.07
69402;BME280;56589;51.992;5.924;2023-04-15T05:40:00;100516.88;;;6.68;67.96
69402;BME280;56589;51.992;5.924;2023-04-15T05:42:29;100523.03;;;6.82;67.89
69402;BME280;56589;51.992;5.924;2023-04-15T05:44:54;100524.78;;;6.99;67.75
69402;BME280;56589;51.992;5.924;2023-04-15T05:47:20;100528.22;;;7.16;67.48
69402;BME280;56589;51.992;5.924;2023-04-15T05:49:46;100531.81;;;7.46;68.12
69402;BME280;56589;51.992;5.924;2023-04-15T05:52:12;100541.38;;;7.93;67.46
69402;BME280;56589;51.992;5.924;2023-04-15T05:54:37;100540.47;;;8.38;67.21
69402;BME280;56589;51.992;5.924;2023-04-15T05:57:03;100540.72;;;8.92;67.00
69402;BME280;56589;51.992;5.924;2023-04-15T05:59:32;100536.09;;;9.53;65.57
69402;BME280;56589;51.992;5.924;2023-04-15T06:01:57;100535.00;;;9.97;64.16
69402;BME280;56589;51.992;5.924;2023-04-15T06:04:24;100548.63;;;10.29;63.36
69402;BME280;56589;51.992;5.924;2023-04-15T06:06:49;100547.41;;;10.60;62.14
69402;BME280;56589;51.992;5.924;2023-04-15T06:09:15;100549.81;;;10.76;61.69
69402;BME280;56589;51.992;5.924;2023-04-15T06:11:41;100554.69;;;10.82;61.47
69402;BME280;56589;51.992;5.924;2023-04-15T06:14:07;100565.41;;;10.92;60.47
69402;BME280;56589;51.992;5.924;2023-04-15T06:16:35;100570.03;;;10.88;60.15
69402;BME280;56589;51.992;5.924;2023-04-15T06:19:01;100583.16;;;10.88;60.03
69402;BME280;56589;51.992;5.924;2023-04-15T06:21:27;100571.47;;;10.79;59.72
69402;BME280;56589;51.992;5.924;2023-04-15T06:23:52;100577.75;;;10.64;60.12
69402;BME280;56589;51.992;5.924;2023-04-15T06:26:18;100581.19;;;10.39;59.58
69402;BME280;56589;51.992;5.924;2023-04-15T06:28:44;100593.59;;;10.10;59.78
69402;BME280;56589;51.992;5.924;2023-04-15T06:31:10;100590.97;;;9.83;60.73
69402;BME280;56589;51.992;5.924;2023-04-15T06:33:38;100600.75;;;9.67;61.32
69402;BME280;56589;51.992;5.924;2023-04-15T06:36:04;100600.78;;;9.53;60.84
69402;BME280;56589;51.992;5.924;2023-04-15T06:38:30;100582.63;;;9.35;61.03
69402;BME280;56589;51.992;5.924;2023-04-15T06:40:56;100609.31;;;9.13;61.17
69402;BME280;56589;51.992;5.924;2023-04-15T06:43:22;100612.47;;;9.04;61.52
69402;BME280;56589;51.992;5.924;2023-04-15T06:45:47;100624.63;;;8.91;61.78
69402;BME280;56589;51.992;5.924;2023-04-15T06:48:13;100624.66;;;8.75;62.11
69402;BME280;56589;51.992;5.924;2023-04-15T06:50:41;100625.38;;;8.63;62.04
69402;BME280;56589;51.992;5.924;2023-04-15T06:53:07;100628.91;;;8.48;62.64
69402;BME280;56589;51.992;5.924;2023-04-15T06:55:33;100633.81;;;8.38;62.93
69402;BME280;56589;51.992;5.924;2023-04-15T06:57:59;100629.72;;;8.34;62.84
69402;BME280;56589;51.992;5.924;2023-04-15T07:00:24;100629.03;;;8.30;63.08
69402;BME280;56589;51.992;5.924;2023-04-15T07:02:50;100640.78;;;8.23;63.20
69402;BME280;56589;51.992;5.924;2023-04-15T07:05:16;100636.88;;;8.14;63.71
69402;BME280;56589;51.992;5.924;2023-04-15T07:07:45;100638.84;;;8.11;63.64
69402;BME280;56589;51.992;5.924;2023-04-15T07:10:10;100648.97;;;8.17;64.07
69402;BME280;56589;51.992;5.924;2023-04-15T07:12:36;100650.50;;;8.21;63.77
69402;BME280;56589;51.992;5.924;2023-04-15T07:15:02;100653.09;;;8.21;63.92
69402;BME280;56589;51.992;5.924;2023-04-15T07:17:29;100653.34;;;8.17;63.63
69402;BME280;56589;51.992;5.924;2023-04-15T07:19:55;100655.97;;;8.17;63.62
69402;BME280;56589;51.992;5.924;2023-04-15T07:22:21;100664.81;;;8.14;63.77
69402;BME280;56589;51.992;5.924;2023-04-15T07:24:49;100663.41;;;8.08;63.68
69402;BME280;56589;51.992;5.924;2023-04-15T07:27:15;100668.38;;;8.13;64.11
69402;BME280;56589;51.992;5.924;2023-04-15T07:29:42;100671.31;;;8.23;63.83
69402;BME280;56589;51.992;5.924;2023-04-15T07:32:08;100676.22;;;8.29;64.16
69402;BME280;56589;51.992;5.924;2023-04-15T07:34:34;100674.19;;;8.34;63.92
69402;BME280;56589;51.992;5.924;2023-04-15T07:37:00;100677.78;;;8.31;64.01
69402;BME280;56589;51.992;5.924;2023-04-15T07:39:25;100682.03;;;8.34;64.02
69402;BME280;56589;51.992;5.924;2023-04-15T07:41:54;100688.69;;;8.39;64.46
69402;BME280;56589;51.992;5.924;2023-04-15T07:44:19;100688.16;;;8.49;64.32
69402;BME280;56589;51.992;5.924;2023-04-15T07:46:46;100692.00;;;8.57;64.00
69402;BME280;56589;51.992;5.924;2023-04-15T07:49:12;100692.44;;;8.65;63.69
69402;BME280;56589;51.992;5.924;2023-04-15T07:51:38;100691.31;;;8.69;63.61
69402;BME280;56589;51.992;5.924;2023-04-15T07:54:03;100692.81;;;8.74;63.88
69402;BME280;56589;51.992;5.924;2023-04-15T07:56:32;100698.28;;;8.85;64.02
69402;BME280;56589;51.992;5.924;2023-04-15T07:59:00;100700.28;;;8.95;63.80
69402;BME280;56589;51.992;5.924;2023-04-15T08:01:26;100704.03;;;9.06;63.06
69402;BME280;56589;51.992;5.924;2023-04-15T08:03:52;100705.38;;;9.13;63.36
69402;BME280;56589;51.992;5.924;2023-04-15T08:06:17;100706.16;;;9.29;63.07
69402;BME280;56589;51.992;5.924;2023-04-15T08:08:43;100712.28;;;9.44;62.31
69402;BME280;56589;51.992;5.924;2023-04-15T08:11:09;100724.06;;;9.51;62.33
69402;BME280;56589;51.992;5.924;2023-04-15T08:13:35;100712.44;;;9.55;61.55
69402;BME280;56589;51.992;5.924;2023-04-15T08:16:17;100731.66;;;9.70;61.79
69402;BME280;56589;51.992;5.924;2023-04-15T08:18:44;100726.66;;;9.80;61.24
69402;BME280;56589;51.992;5.924;2023-04-15T08:21:11;100727.59;;;9.79;60.22
69402;BME280;56589;51.992;5.924;2023-04-15T08:23:37;100726.88;;;9.76;60.58
69402;BME280;56589;51.992;5.924;2023-04-15T08:26:03;100722.09;;;9.83;60.12
69402;BME280;56589;51.992;5.924;2023-04-15T08:28:29;100723.28;;;9.92;60.52
69402;BME280;56589;51.992;5.924;2023-04-15T08:30:56;100719.06;;;10.03;59.79
69402;BME280;56589;51.992;5.924;2023-04-15T08:33:24;100716.72;;;10.13;58.99
69402;BME280;56589;51.992;5.924;2023-04-15T08:35:50;100724.47;;;10.15;59.19
69402;BME280;56589;51.992;5.924;2023-04-15T08:38:16;100726.69;;;10.21;58.90
69402;BME280;56589;51.992;5.924;2023-04-15T08:40:42;100735.25;;;10.24;58.60
69402;BME280;56589;51.992;5.924;2023-04-15T08:43:12;100742.56;;;10.19;58.89
69402;BME280;56589;51.992;5.924;2023-04-15T08:45:43;100742.56;;;10.19;58.66
69402;BME280;56589;51.992;5.924;2023-04-15T08:48:14;100742.34;;;10.22;58.45
69402;BME280;56589;51.992;5.924;2023-04-15T08:50:42;100750.97;;;10.24;58.76
69402;BME280;56589;51.992;5.924;2023-04-15T08:53:09;100751.72;;;10.26;58.83
69402;BME280;56589;51.992;5.924;2023-04-15T08:55:41;100753.50;;;10.26;58.73
69402;BME280;56589;51.992;5.924;2023-04-15T08:58:08;100753.78;;;10.21;57.96
69402;BME280;56589;51.992;5.924;2023-04-15T09:00:34;100764.00;;;10.26;58.95
69402;BME280;56589;51.992;5.924;2023-04-15T09:03:01;100755.25;;;10.40;58.91
69402;BME280;56589;51.992;5.924;2023-04-15T09:05:30;100759.41;;;10.56;59.17
69402;BME280;56589;51.992;5.924;2023-04-15T09:07:59;100771.94;;;10.66;58.46
69402;BME280;56589;51.992;5.924;2023-04-15T09:10:25;100771.94;;;10.66;57.54
69402;BME280;56589;51.992;5.924;2023-04-15T09:12:51;100778.97;;;10.65;57.83
69402;BME280;56589;51.992;5.924;2023-04-15T09:15:17;100774.78;;;10.63;58.01
69402;BME280;56589;51.992;5.924;2023-04-15T09:17:44;100777.41;;;10.63;58.22
69402;BME280;56589;51.992;5.924;2023-04-15T09:20:12;100786.47;;;10.71;58.05
69402;BME280;56589;51.992;5.924;2023-04-15T09:22:39;100782.34;;;10.81;58.04
69402;BME280;56589;51.992;5.924;2023-04-15T09:25:24;100793.63;;;10.96;57.78
69402;BME280;56589;51.992;5.924;2023-04-15T09:27:52;100790.41;;;11.05;57.78
69402;BME280;56589;51.992;5.924;2023-04-15T09:30:19;100797.22;;;11.08;57.46
69402;BME280;56589;51.992;5.924;2023-04-15T09:32:48;100798.41;;;11.17;57.85
69402;BME280;56589;51.992;5.924;2023-04-15T09:35:15;100791.50;;;11.28;57.85
69402;BME280;56589;51.992;5.924;2023-04-15T09:37:40;100799.06;;;11.46;57.66
69402;BME280;56589;51.992;5.924;2023-04-15T09:40:07;100799.84;;;11.60;57.41
69402;BME280;56589;51.992;5.924;2023-04-15T09:42:53;100806.59;;;11.77;56.23
69402;BME280;56589;51.992;5.924;2023-04-15T09:45:20;100805.09;;;11.73;56.29
69402;BME280;56589;51.992;5.924;2023-04-15T09:47:46;100806.78;;;11.74;56.51
69402;BME280;56589;51.992;5.924;2023-04-15T09:50:12;100818.78;;;11.91;56.65
69402;BME280;56589;51.992;5.924;2023-04-15T09:52:41;100809.09;;;12.04;56.23
69402;BME280;56589;51.992;5.924;2023-04-15T09:55:07;100814.78;;;12.24;56.03
69402;BME280;56589;51.992;5.924;2023-04-15T09:57:38;100818.34;;;12.35;55.67
69402;BME280;56589;51.992;5.924;2023-04-15T10:00:07;100819.53;;;12.55;55.87
69402;BME280;56589;51.992;5.924;2023-04-15T10:02:34;100825.28;;;12.73;54.82
69402;BME280;56589;51.992;5.924;2023-04-15T10:05:01;100818.13;;;12.75;53.36
69402;BME280;56589;51.992;5.924;2023-04-15T10:07:27;100825.97;;;12.64;53.90
69402;BME280;56589;51.992;5.924;2023-04-15T10:09:54;100847.09;;;12.75;53.91
69402;BME280;56589;51.992;5.924;2023-04-15T10:12:21;100829.59;;;12.74;53.49
69402;BME280;56589;51.992;5.924;2023-04-15T10:14:52;100828.97;;;12.70;54.05
69402;BME280;56589;51.992;5.924;2023-04-15T10:17:24;100828.66;;;12.75;54.54
69402;BME280;56589;51.992;5.924;2023-04-15T10:19:53;100841.53;;;12.91;54.04
69402;BME280;56589;51.992;5.924;2023-04-15T10:22:19;100840.06;;;12.87;52.88
69402;BME280;56589;51.992;5.924;2023-04-15T10:24:47;100834.38;;;12.69;52.62
69402;BME280;56589;51.992;5.924;2023-04-15T10:27:16;100838.41;;;12.49;53.12
69402;BME280;56589;51.992;5.924;2023-04-15T10:29:42;100842.16;;;12.34;53.49
69402;BME280;56589;51.992;5.924;2023-04-15T10:32:12;100847.72;;;12.29;54.04
69402;BME280;56589;51.992;5.924;2023-04-15T10:34:39;100850.16;;;12.32;54.41
69402;BME280;56589;51.992;5.924;2023-04-15T10:37:08;100849.72;;;12.38;53.30
69402;BME280;56589;51.992;5.924;2023-04-15T10:39:41;100853.28;;;12.37;52.80
69402;BME280;56589;51.992;5.924;2023-04-15T10:42:11;100846.13;;;12.39;53.24
69402;BME280;56589;51.992;5.924;2023-04-15T10:44:41;100851.13;;;12.55;53.66
69402;BME280;56589;51.992;5.924;2023-04-15T10:47:14;100844.50;;;12.86;53.36
69402;BME280;56589;51.992;5.924;2023-04-15T10:49:43;100849.28;;;13.05;51.80
69402;BME280;56589;51.992;5.924;2023-04-15T10:52:10;100856.59;;;13.02;52.67
69402;BME280;56589;51.992;5.924;2023-04-15T10:54:35;100861.13;;;13.00;52.39
69402;BME280;56589;51.992;5.924;2023-04-15T10:57:09;100860.50;;;12.96;51.57
69402;BME280;56589;51.992;5.924;2023-04-15T11:00:10;100866.47;;;12.74;51.93
69402;BME280;56589;51.992;5.924;2023-04-15T11:02:42;100866.19;;;12.66;52.44
69402;BME280;56589;51.992;5.924;2023-04-15T11:05:10;100861.63;;;12.68;52.29
69402;BME280;56589;51.992;5.924;2023-04-15T11:07:46;100867.88;;;12.67;52.20
69402;BME280;56589;51.992;5.924;2023-04-15T11:13:17;100870.38;;;12.68;52.24
69402;BME280;56589;51.992;5.924;2023-04-15T11:15:46;100855.72;;;12.77;52.50
69402;BME280;56589;51.992;5.924;2023-04-15T11:18:17;100862.13;;;12.86;52.27
69402;BME280;56589;51.992;5.924;2023-04-15T11:20:47;100859.38;;;12.87;51.79
69402;BME280;56589;51.992;5.924;2023-04-15T11:23:15;100863.69;;;12.88;51.50
69402;BME280;56589;51.992;5.924;2023-04-15T11:25:42;100866.78;;;12.82;50.84
69402;BME280;56589;51.992;5.924;2023-04-15T11:28:10;100870.06;;;12.73;51.13
69402;BME280;56589;51.992;5.924;2023-04-15T11:30:37;100873.09;;;12.80;51.31
69402;BME280;56589;51.992;5.924;2023-04-15T11:33:05;100867.69;;;12.94;50.78
69402;BME280;56589;51.992;5.924;2023-04-15T11:35:35;100882.50;;;13.08;50.21
69402;BME280;56589;51.992;5.924;2023-04-15T11:38:02;100864.63;;;13.11;50.85
69402;BME280;56589;51.992;5.924;2023-04-15T11:40:29;100877.16;;;13.20;50.71
69402;BME280;56589;51.992;5.924;2023-04-15T11:43:05;100882.94;;;13.25;50.00
69402;BME280;56589;51.992;5.924;2023-04-15T11:45:32;100886.19;;;13.29;49.68
69402;BME280;56589;51.992;5.924;2023-04-15T11:48:06;100897.19;;;13.23;49.33
69402;BME280;56589;51.992;5.924;2023-04-15T11:50:36;100886.34;;;13.39;48.33
69402;BME280;56589;51.992;5.924;2023-04-15T11:53:03;100888.94;;;13.51;48.98
69402;BME280;56589;51.992;5.924;2023-04-15T11:55:40;100891.38;;;13.66;48.70
69402;BME280;56589;51.992;5.924;2023-04-15T11:58:08;100890.06;;;13.71;48.64
69402;BME280;56589;51.992;5.924;2023-04-15T12:00:36;100898.63;;;13.75;48.83
69402;BME280;56589;51.992;5.924;2023-04-15T12:03:13;100900.50;;;13.73;47.89
69402;BME280;56589;51.992;5.924;2023-04-15T12:06:07;100910.44;;;13.58;47.26
69402;BME280;56589;51.992;5.924;2023-04-15T12:08:56;100908.66;;;13.46;48.54
69402;BME280;56589;51.992;5.924;2023-04-15T12:11:33;100913.44;;;13.41;48.82
69402;BME280;56589;51.992;5.924;2023-04-15T12:14:06;100921.69;;;13.36;48.25
69402;BME280;56589;51.992;5.924;2023-04-15T12:16:34;100925.00;;;13.27;48.87
69402;BME280;56589;51.992;5.924;2023-04-15T12:19:05;100909.19;;;13.27;48.90
69402;BME280;56589;51.992;5.924;2023-04-15T12:21:38;100910.22;;;13.37;49.37
69402;BME280;56589;51.992;5.924;2023-04-15T12:24:06;100918.59;;;13.55;49.14
69402;BME280;56589;51.992;5.924;2023-04-15T12:26:35;100915.03;;;13.78;49.38
69402;BME280;56589;51.992;5.924;2023-04-15T12:29:03;100917.75;;;14.01;48.80
69402;BME280;56589;51.992;5.924;2023-04-15T12:31:30;100922.09;;;14.13;47.96
69402;BME280;56589;51.992;5.924;2023-04-15T12:33:57;100935.75;;;14.07;47.77
69402;BME280;56589;51.992;5.924;2023-04-15T12:36:27;100939.78;;;13.89;47.18
69402;BME280;56589;51.992;5.924;2023-04-15T12:38:56;100935.59;;;13.86;48.10
69402;BME280;56589;51.992;5.924;2023-04-15T12:41:22;100936.66;;;13.84;47.28
69402;BME280;56589;51.992;5.924;2023-04-15T12:43:47;100931.84;;;13.77;47.83
69402;BME280;56589;51.992;5.924;2023-04-15T12:46:13;100943.03;;;13.81;48.78
69402;BME280;56589;51.992;5.924;2023-04-15T12:48:39;100944.00;;;13.91;48.31
69402;BME280;56589;51.992;5.924;2023-04-15T12:51:05;100946.63;;;13.91;48.84
69402;BME280;56589;51.992;5.924;2023-04-15T12:53:31;100947.84;;;13.87;48.43
69402;BME280;56589;51.992;5.924;2023-04-15T12:55:59;100949.59;;;13.75;47.94
69402;BME280;56589;51.992;5.924;2023-04-15T12:58:25;100965.72;;;13.60;47.65
69402;BME280;56589;51.992;5.924;2023-04-15T13:00:51;100953.63;;;13.44;48.52